sensor_id;sensor_type;location;lat;lon;timestamp;P1;durP1;ratioP1;P2;durP2;ratioP2
74749;SDS011;63269;53.330;-6.288;2022-12-08T00:01:21;7.78;;;5.13;;
74749;SDS011;63269;53.330;-6.288;2022-12-08T00:03:48;12.38;;;6.00;;
74749;SDS011;63269;53.330;-6.288;2022-12-08T00:06:21;7.85;;;4.93;;
74749;SDS011;63269;53.330;-6.288;2022-12-08T00:09:32;15.52;;;5.90;;
74749;SDS011;63269;53.330;-6.288;2022-12-08T00:11:59;8.82;;;5.13;;
74749;SDS011;63269;53.330;-6.288;2022-12-08T00:17:02;7.70;;;4.97;;
74749;SDS011;63269;53.330;-6.288;2022-12-08T00:19:29;6.28;;;4.60;;
74749;SDS011;63269;53.330;-6.288;2022-12-08T00:21:55;10.60;;;4.78;;
74749;SDS011;63269;53.330;-6.288;2022-12-08T00:24:22;7.18;;;4.93;;
74749;SDS011;63269;53.330;-6.288;2022-12-08T00:26:48;7.25;;;4.45;;
74749;SDS011;63269;53.330;-6.288;2022-12-08T00:29:14;8.07;;;4.35;;
74749;SDS011;63269;53.330;-6.288;2022-12-08T00:31:40;5.20;;;4.10;;
74749;SDS011;63269;53.330;-6.288;2022-12-08T00:34:05;8.57;;;5.43;;
74749;SDS011;63269;53.330;-6.288;2022-12-08T00:36:31;6.40;;;4.25;;
74749;SDS011;63269;53.330;-6.288;2022-12-08T00:38:57;7.13;;;4.68;;
74749;SDS011;63269;53.330;-6.288;2022-12-08T00:41:23;7.78;;;4.47;;
74749;SDS011;63269;53.330;-6.288;2022-12-08T00:44:09;9.32;;;5.22;;
74749;SDS011;63269;53.330;-6.288;2022-12-08T00:46:37;6.85;;;4.10;;
74749;SDS011;63269;53.330;-6.288;2022-12-08T00:49:03;7.15;;;4.95;;
74749;SDS011;63269;53.330;-6.288;2022-12-08T00:51:29;9.65;;;5.22;;
74749;SDS011;63269;53.330;-6.288;2022-12-08T00:53:55;7.72;;;5.38;;
74749;SDS011;63269;53.330;-6.288;2022-12-08T00:56:20;6.18;;;4.20;;
74749;SDS011;63269;53.330;-6.288;2022-12-08T00:58:46;8.98;;;4.45;;
74749;SDS011;63269;53.330;-6.288;2022-12-08T01:01:12;7.35;;;4.22;;
74749;SDS011;63269;53.330;-6.288;2022-12-08T01:03:38;5.85;;;3.95;;
74749;SDS011;63269;53.330;-6.288;2022-12-08T01:06:04;5.45;;;4.30;;
74749;SDS011;63269;53.330;-6.288;2022-12-08T01:08:31;7.10;;;4.85;;
74749;SDS011;63269;53.330;-6.288;2022-12-08T01:11:01;5.45;;;4.10;;
74749;SDS011;63269;53.330;-6.288;2022-12-08T01:13:31;6.07;;;4.13;;
74749;SDS011;63269;53.330;-6.288;2022-12-08T01:15:57;5.75;;;3.92;;
74749;SDS011;63269;53.330;-6.288;2022-12-08T01:18:22;8.15;;;4.80;;
74749;SDS011;63269;53.330;-6.288;2022-12-08T01:20:48;7.25;;;4.03;;
74749;SDS011;63269;53.330;-6.288;2022-12-08T01:23:13;6.03;;;3.95;;
74749;SDS011;63269;53.330;-6.288;2022-12-08T01:25:39;5.53;;;4.00;;
74749;SDS011;63269;53.330;-6.288;2022-12-08T01:28:04;6.43;;;4.03;;
74749;SDS011;63269;53.330;-6.288;2022-12-08T01:30:30;6.38;;;3.75;;
74749;SDS011;63269;53.330;-6.288;2022-12-08T01:32:55;5.90;;;4.20;;
74749;SDS011;63269;53.330;-6.288;2022-12-08T01:35:21;5.53;;;3.58;;
74749;SDS011;63269;53.330;-6.288;2022-12-08T01:37:46;8.32;;;3.88;;
74749;SDS011;63269;53.330;-6.288;2022-12-08T01:40:13;5.50;;;3.53;;
74749;SDS011;63269;53.330;-6.288;2022-12-08T01:42:38;4.20;;;3.22;;
74749;SDS011;63269;53.330;-6.288;2022-12-08T01:45:05;6.63;;;4.18;;
74749;SDS011;63269;53.330;-6.288;2022-12-08T01:47:39;5.80;;;3.30;;
74749;SDS011;63269;53.330;-6.288;2022-12-08T01:50:07;5.23;;;4.07;;
74749;SDS011;63269;53.330;-6.288;2022-12-08T01:52:36;5.18;;;3.15;;
74749;SDS011;63269;53.330;-6.288;2022-12-08T01:55:07;6.05;;;4.22;;
74749;SDS011;63269;53.330;-6.288;2022-12-08T01:57:40;5.78;;;3.42;;
74749;SDS011;63269;53.330;-6.288;2022-12-08T02:00:13;5.57;;;3.63;;
74749;SDS011;63269;53.330;-6.288;2022-12-08T02:02:49;6.68;;;3.70;;
74749;SDS011;63269;53.330;-6.288;2022-12-08T02:05:16;5.00;;;3.53;;
74749;SDS011;63269;53.330;-6.288;2022-12-08T02:07:43;7.30;;;3.40;;
74749;SDS011;63269;53.330;-6.288;2022-12-08T02:10:10;5.35;;;3.72;;
74749;SDS011;63269;53.330;-6.288;2022-12-08T02:12:40;4.85;;;3.63;;
74749;SDS011;63269;53.330;-6.288;2022-12-08T02:15:06;6.68;;;3.70;;
74749;SDS011;63269;53.330;-6.288;2022-12-08T02:17:39;4.40;;;3.53;;
74749;SDS011;63269;53.330;-6.288;2022-12-08T02:20:34;4.43;;;3.28;;
74749;SDS011;63269;53.330;-6.288;2022-12-08T02:23:11;4.97;;;3.67;;
74749;SDS011;63269;53.330;-6.288;2022-12-08T02:31:57;5.10;;;3.30;;
74749;SDS011;63269;53.330;-6.288;2022-12-08T02:34:44;4.32;;;3.13;;
74749;SDS011;63269;53.330;-6.288;2022-12-08T02:37:30;5.63;;;3.40;;
74749;SDS011;63269;53.330;-6.288;2022-12-08T02:40:08;5.05;;;2.90;;
74749;SDS011;63269;53.330;-6.288;2022-12-08T02:42:43;3.67;;;2.72;;
74749;SDS011;63269;53.330;-6.288;2022-12-08T02:45:13;6.03;;;3.35;;
74749;SDS011;63269;53.330;-6.288;2022-12-08T02:47:46;5.55;;;2.80;;
74749;SDS011;63269;53.330;-6.288;2022-12-08T02:50:12;4.32;;;2.85;;
74749;SDS011;63269;53.330;-6.288;2022-12-08T02:52:39;3.78;;;2.53;;
74749;SDS011;63269;53.330;-6.288;2022-12-08T03:03:29;4.30;;;2.72;;
74749;SDS011;63269;53.330;-6.288;2022-12-08T03:08:49;4.88;;;3.53;;
74749;SDS011;63269;53.330;-6.288;2022-12-08T03:11:38;5.28;;;3.00;;
74749;SDS011;63269;53.330;-6.288;2022-12-08T03:14:09;4.03;;;2.78;;
74749;SDS011;63269;53.330;-6.288;2022-12-08T03:16:38;4.70;;;2.90;;
74749;SDS011;63269;53.330;-6.288;2022-12-08T03:19:10;6.13;;;3.55;;
74749;SDS011;63269;53.330;-6.288;2022-12-08T03:21:41;5.15;;;3.40;;
74749;SDS011;63269;53.330;-6.288;2022-12-08T03:24:09;4.38;;;3.03;;
74749;SDS011;63269;53.330;-6.288;2022-12-08T03:26:41;4.65;;;2.92;;
74749;SDS011;63269;53.330;-6.288;2022-12-08T03:29:10;5.20;;;3.50;;
74749;SDS011;63269;53.330;-6.288;2022-12-08T03:31:38;4.78;;;3.17;;
74749;SDS011;63269;53.330;-6.288;2022-12-08T03:34:08;3.65;;;2.22;;
74749;SDS011;63269;53.330;-6.288;2022-12-08T03:36:35;3.53;;;2.58;;
74749;SDS011;63269;53.330;-6.288;2022-12-08T03:39:01;5.10;;;3.25;;
74749;SDS011;63269;53.330;-6.288;2022-12-08T03:41:27;5.38;;;3.28;;
74749;SDS011;63269;53.330;-6.288;2022-12-08T03:43:53;4.78;;;2.95;;
74749;SDS011;63269;53.330;-6.288;2022-12-08T03:46:21;4.03;;;2.70;;
74749;SDS011;63269;53.330;-6.288;2022-12-08T03:48:48;4.05;;;2.85;;
74749;SDS011;63269;53.330;-6.288;2022-12-08T03:51:13;6.18;;;2.88;;
74749;SDS011;63269;53.330;-6.288;2022-12-08T03:53:39;5.40;;;2.70;;
74749;SDS011;63269;53.330;-6.288;2022-12-08T03:56:10;3.47;;;2.42;;
74749;SDS011;63269;53.330;-6.288;2022-12-08T03:58:40;5.05;;;3.28;;
74749;SDS011;63269;53.330;-6.288;2022-12-08T04:01:06;4.80;;;2.42;;
74749;SDS011;63269;53.330;-6.288;2022-12-08T04:03:32;3.88;;;2.63;;
74749;SDS011;63269;53.330;-6.288;2022-12-08T04:05:57;4.72;;;2.90;;
74749;SDS011;63269;53.330;-6.288;2022-12-08T04:08:23;4.47;;;2.65;;
74749;SDS011;63269;53.330;-6.288;2022-12-08T04:10:48;3.80;;;2.30;;
74749;SDS011;63269;53.330;-6.288;2022-12-08T04:13:13;3.42;;;2.38;;
74749;SDS011;63269;53.330;-6.288;2022-12-08T04:15:43;4.78;;;2.47;;
74749;SDS011;63269;53.330;-6.288;2022-12-08T04:18:09;3.60;;;2.45;;
74749;SDS011;63269;53.330;-6.288;2022-12-08T04:20:37;4.78;;;2.65;;
74749;SDS011;63269;53.330;-6.288;2022-12-08T04:23:04;4.05;;;3.13;;
74749;SDS011;63269;53.330;-6.288;2022-12-08T04:25:29;3.17;;;2.17;;
74749;SDS011;63269;53.330;-6.288;2022-12-08T04:27:54;4.07;;;2.83;;
74749;SDS011;63269;53.330;-6.288;2022-12-08T04:30:20;3.22;;;2.13;;
74749;SDS011;63269;53.330;-6.288;2022-12-08T04:32:45;4.70;;;2.78;;
74749;SDS011;63269;53.330;-6.288;2022-12-08T04:35:11;5.28;;;2.60;;
74749;SDS011;63269;53.330;-6.288;2022-12-08T04:37:36;3.22;;;2.30;;
74749;SDS011;63269;53.330;-6.288;2022-12-08T04:40:02;4.07;;;2.20;;
74749;SDS011;63269;53.330;-6.288;2022-12-08T04:42:28;2.88;;;2.08;;
74749;SDS011;63269;53.330;-6.288;2022-12-08T04:44:53;3.15;;;2.28;;
74749;SDS011;63269;53.330;-6.288;2022-12-08T04:47:18;4.15;;;2.08;;
74749;SDS011;63269;53.330;-6.288;2022-12-08T04:49:46;3.42;;;2.45;;
74749;SDS011;63269;53.330;-6.288;2022-12-08T04:52:11;3.65;;;2.22;;
74749;SDS011;63269;53.330;-6.288;2022-12-08T04:54:37;3.45;;;1.98;;
74749;SDS011;63269;53.330;-6.288;2022-12-08T04:57:02;3.90;;;2.30;;
74749;SDS011;63269;53.330;-6.288;2022-12-08T04:59:28;3.92;;;2.35;;
74749;SDS011;63269;53.330;-6.288;2022-12-08T05:01:53;5.60;;;3.13;;
74749;SDS011;63269;53.330;-6.288;2022-12-08T05:04:18;4.57;;;2.58;;
74749;SDS011;63269;53.330;-6.288;2022-12-08T05:06:44;3.13;;;2.40;;
74749;SDS011;63269;53.330;-6.288;2022-12-08T05:09:09;2.65;;;1.73;;
74749;SDS011;63269;53.330;-6.288;2022-12-08T05:11:35;3.90;;;2.10;;
74749;SDS011;63269;53.330;-6.288;2022-12-08T05:14:00;4.13;;;2.55;;
74749;SDS011;63269;53.330;-6.288;2022-12-08T05:16:25;3.20;;;2.38;;
74749;SDS011;63269;53.330;-6.288;2022-12-08T05:18:51;4.65;;;2.28;;
74749;SDS011;63269;53.330;-6.288;2022-12-08T05:21:16;4.05;;;2.00;;
74749;SDS011;63269;53.330;-6.288;2022-12-08T05:23:42;3.65;;;2.30;;
74749;SDS011;63269;53.330;-6.288;2022-12-08T05:26:07;4.07;;;2.40;;
74749;SDS011;63269;53.330;-6.288;2022-12-08T05:28:33;2.88;;;1.90;;
74749;SDS011;63269;53.330;-6.288;2022-12-08T05:30:58;2.95;;;2.00;;
74749;SDS011;63269;53.330;-6.288;2022-12-08T05:33:24;3.33;;;2.30;;
74749;SDS011;63269;53.330;-6.288;2022-12-08T05:35:49;4.10;;;2.05;;
74749;SDS011;63269;53.330;-6.288;2022-12-08T05:38:14;3.05;;;2.10;;
74749;SDS011;63269;53.330;-6.288;2022-12-08T05:40:40;2.33;;;1.80;;
74749;SDS011;63269;53.330;-6.288;2022-12-08T05:43:07;3.10;;;2.20;;
74749;SDS011;63269;53.330;-6.288;2022-12-08T05:45:34;2.85;;;1.75;;
74749;SDS011;63269;53.330;-6.288;2022-12-08T05:47:59;3.95;;;2.30;;
74749;SDS011;63269;53.330;-6.288;2022-12-08T05:50:24;3.40;;;2.13;;
74749;SDS011;63269;53.330;-6.288;2022-12-08T05:52:50;3.40;;;1.83;;
74749;SDS011;63269;53.330;-6.288;2022-12-08T05:55:15;4.05;;;2.63;;
74749;SDS011;63269;53.330;-6.288;2022-12-08T05:57:40;3.15;;;2.10;;
74749;SDS011;63269;53.330;-6.288;2022-12-08T06:00:06;3.47;;;1.80;;
74749;SDS011;63269;53.330;-6.288;2022-12-08T06:02:32;3.00;;;1.92;;
74749;SDS011;63269;53.330;-6.288;2022-12-08T06:04:58;3.05;;;1.92;;
74749;SDS011;63269;53.330;-6.288;2022-12-08T06:07:23;3.58;;;2.22;;
74749;SDS011;63269;53.330;-6.288;2022-12-08T06:09:49;2.40;;;1.55;;
74749;SDS011;63269;53.330;-6.288;2022-12-08T06:12:14;3.75;;;1.80;;
74749;SDS011;63269;53.330;-6.288;2022-12-08T06:14:40;2.78;;;1.80;;
74749;SDS011;63269;53.330;-6.288;2022-12-08T06:17:06;2.22;;;1.70;;
74749;SDS011;63269;53.330;-6.288;2022-12-08T06:19:31;4.85;;;1.95;;
74749;SDS011;63269;53.330;-6.288;2022-12-08T06:21:56;2.85;;;1.85;;
74749;SDS011;63269;53.330;-6.288;2022-12-08T06:24:22;3.83;;;1.90;;
74749;SDS011;63269;53.330;-6.288;2022-12-08T06:26:47;3.35;;;2.00;;
74749;SDS011;63269;53.330;-6.288;2022-12-08T06:29:13;3.25;;;2.00;;
74749;SDS011;63269;53.330;-6.288;2022-12-08T06:31:39;2.30;;;1.67;;
74749;SDS011;63269;53.330;-6.288;2022-12-08T06:34:04;3.72;;;2.10;;
74749;SDS011;63269;53.330;-6.288;2022-12-08T06:36:30;2.53;;;1.95;;
74749;SDS011;63269;53.330;-6.288;2022-12-08T06:38:55;4.63;;;2.03;;
74749;SDS011;63269;53.330;-6.288;2022-12-08T06:41:21;3.05;;;1.98;;
74749;SDS011;63269;53.330;-6.288;2022-12-08T06:43:47;3.00;;;1.52;;
74749;SDS011;63269;53.330;-6.288;2022-12-08T06:46:13;3.15;;;1.77;;
74749;SDS011;63269;53.330;-6.288;2022-12-08T06:48:41;3.88;;;1.83;;
74749;SDS011;63269;53.330;-6.288;2022-12-08T06:51:11;3.13;;;1.67;;
74749;SDS011;63269;53.330;-6.288;2022-12-08T06:53:44;4.57;;;2.13;;
74749;SDS011;63269;53.330;-6.288;2022-12-08T06:56:10;3.88;;;1.83;;
74749;SDS011;63269;53.330;-6.288;2022-12-08T06:58:36;3.10;;;2.13;;
74749;SDS011;63269;53.330;-6.288;2022-12-08T07:01:05;2.95;;;2.08;;
74749;SDS011;63269;53.330;-6.288;2022-12-08T07:03:32;3.05;;;1.92;;
74749;SDS011;63269;53.330;-6.288;2022-12-08T07:05:58;2.55;;;1.70;;
74749;SDS011;63269;53.330;-6.288;2022-12-08T07:08:23;3.88;;;1.90;;
74749;SDS011;63269;53.330;-6.288;2022-12-08T07:10:48;4.93;;;2.40;;
74749;SDS011;63269;53.330;-6.288;2022-12-08T07:13:14;5.05;;;2.05;;
74749;SDS011;63269;53.330;-6.288;2022-12-08T07:15:39;2.13;;;1.92;;
74749;SDS011;63269;53.330;-6.288;2022-12-08T07:18:05;3.90;;;1.73;;
74749;SDS011;63269;53.330;-6.288;2022-12-08T07:20:30;3.38;;;1.80;;
74749;SDS011;63269;53.330;-6.288;2022-12-08T07:22:56;3.33;;;2.03;;
74749;SDS011;63269;53.330;-6.288;2022-12-08T07:25:21;4.25;;;2.15;;
74749;SDS011;63269;53.330;-6.288;2022-12-08T07:27:47;3.00;;;1.85;;
74749;SDS011;63269;53.330;-6.288;2022-12-08T07:30:15;2.90;;;1.75;;
74749;SDS011;63269;53.330;-6.288;2022-12-08T07:32:40;2.88;;;1.80;;
74749;SDS011;63269;53.330;-6.288;2022-12-08T07:35:06;3.75;;;2.20;;
74749;SDS011;63269;53.330;-6.288;2022-12-08T07:37:33;3.92;;;1.88;;
74749;SDS011;63269;53.330;-6.288;2022-12-08T07:39:59;3.03;;;2.10;;
74749;SDS011;63269;53.330;-6.288;2022-12-08T07:42:24;2.83;;;2.08;;
74749;SDS011;63269;53.330;-6.288;2022-12-08T07:44:50;3.00;;;1.80;;
74749;SDS011;63269;53.330;-6.288;2022-12-08T07:47:15;2.38;;;1.90;;
74749;SDS011;63269;53.330;-6.288;2022-12-08T07:49:41;4.00;;;2.03;;
74749;SDS011;63269;53.330;-6.288;2022-12-08T07:52:06;3.05;;;2.35;;
74749;SDS011;63269;53.330;-6.288;2022-12-08T07:54:32;3.67;;;2.20;;
74749;SDS011;63269;53.330;-6.288;2022-12-08T07:56:57;3.30;;;1.75;;
74749;SDS011;63269;53.330;-6.288;2022-12-08T07:59:22;3.00;;;2.05;;
74749;SDS011;63269;53.330;-6.288;2022-12-08T08:01:48;4.28;;;1.73;;
74749;SDS011;63269;53.330;-6.288;2022-12-08T08:04:15;2.83;;;1.90;;
74749;SDS011;63269;53.330;-6.288;2022-12-08T08:06:41;4.00;;;2.17;;
74749;SDS011;63269;53.330;-6.288;2022-12-08T08:09:07;2.78;;;1.83;;
74749;SDS011;63269;53.330;-6.288;2022-12-08T08:11:34;3.13;;;1.73;;
74749;SDS011;63269;53.330;-6.288;2022-12-08T08:13:59;2.85;;;1.92;;
74749;SDS011;63269;53.330;-6.288;2022-12-08T08:16:25;3.35;;;2.15;;
74749;SDS011;63269;53.330;-6.288;2022-12-08T08:18:50;4.85;;;1.83;;
74749;SDS011;63269;53.330;-6.288;2022-12-08T08:21:16;3.95;;;2.53;;
74749;SDS011;63269;53.330;-6.288;2022-12-08T08:23:43;2.88;;;2.08;;
74749;SDS011;63269;53.330;-6.288;2022-12-08T08:26:09;4.15;;;2.03;;
74749;SDS011;63269;53.330;-6.288;2022-12-08T08:28:34;3.22;;;2.20;;
74749;SDS011;63269;53.330;-6.288;2022-12-08T08:31:00;4.07;;;1.60;;
74749;SDS011;63269;53.330;-6.288;2022-12-08T08:33:26;4.45;;;1.70;;
74749;SDS011;63269;53.330;-6.288;2022-12-08T08:35:52;4.35;;;2.20;;
74749;SDS011;63269;53.330;-6.288;2022-12-08T08:38:18;3.90;;;1.75;;
74749;SDS011;63269;53.330;-6.288;2022-12-08T08:40:44;6.40;;;2.20;;
74749;SDS011;63269;53.330;-6.288;2022-12-08T08:43:10;10.88;;;2.40;;
74749;SDS011;63269;53.330;-6.288;2022-12-08T08:45:53;8.18;;;2.38;;
74749;SDS011;63269;53.330;-6.288;2022-12-08T08:48:20;8.95;;;2.33;;
74749;SDS011;63269;53.330;-6.288;2022-12-08T08:50:45;6.65;;;2.50;;
74749;SDS011;63269;53.330;-6.288;2022-12-08T08:53:10;6.70;;;2.00;;
74749;SDS011;63269;53.330;-6.288;2022-12-08T08:55:37;6.45;;;2.45;;
74749;SDS011;63269;53.330;-6.288;2022-12-08T08:58:04;7.25;;;1.70;;
74749;SDS011;63269;53.330;-6.288;2022-12-08T09:00:29;6.18;;;2.70;;
74749;SDS011;63269;53.330;-6.288;2022-12-08T09:02:54;3.88;;;2.10;;
74749;SDS011;63269;53.330;-6.288;2022-12-08T09:05:20;7.85;;;2.17;;
74749;SDS011;63269;53.330;-6.288;2022-12-08T09:07:45;4.53;;;2.05;;
74749;SDS011;63269;53.330;-6.288;2022-12-08T09:10:10;8.63;;;3.25;;
74749;SDS011;63269;53.330;-6.288;2022-12-08T09:12:36;4.63;;;2.70;;
74749;SDS011;63269;53.330;-6.288;2022-12-08T09:15:01;4.32;;;1.83;;
74749;SDS011;63269;53.330;-6.288;2022-12-08T09:17:27;8.73;;;2.00;;
74749;SDS011;63269;53.330;-6.288;2022-12-08T09:19:52;5.82;;;1.95;;
74749;SDS011;63269;53.330;-6.288;2022-12-08T09:22:18;3.35;;;2.00;;
74749;SDS011;63269;53.330;-6.288;2022-12-08T09:24:43;5.75;;;2.08;;
74749;SDS011;63269;53.330;-6.288;2022-12-08T09:27:09;8.95;;;2.42;;
74749;SDS011;63269;53.330;-6.288;2022-12-08T09:29:34;4.85;;;1.70;;
74749;SDS011;63269;53.330;-6.288;2022-12-08T09:31:59;7.50;;;2.13;;
74749;SDS011;63269;53.330;-6.288;2022-12-08T09:34:25;4.30;;;1.92;;
74749;SDS011;63269;53.330;-6.288;2022-12-08T09:36:50;5.85;;;1.90;;
74749;SDS011;63269;53.330;-6.288;2022-12-08T09:39:16;3.20;;;1.63;;
74749;SDS011;63269;53.330;-6.288;2022-12-08T09:41:42;3.08;;;1.60;;
74749;SDS011;63269;53.330;-6.288;2022-12-08T09:47:02;3.65;;;1.92;;
74749;SDS011;63269;53.330;-6.288;2022-12-08T09:49:38;4.65;;;1.70;;
74749;SDS011;63269;53.330;-6.288;2022-12-08T09:52:16;6.68;;;2.42;;
74749;SDS011;63269;53.330;-6.288;2022-12-08T09:54:45;3.53;;;1.80;;
74749;SDS011;63269;53.330;-6.288;2022-12-08T09:57:13;7.28;;;2.30;;
74749;SDS011;63269;53.330;-6.288;2022-12-08T09:59:44;7.47;;;2.35;;
74749;SDS011;63269;53.330;-6.288;2022-12-08T10:02:25;6.65;;;2.15;;
74749;SDS011;63269;53.330;-6.288;2022-12-08T10:04:53;6.55;;;2.55;;
74749;SDS011;63269;53.330;-6.288;2022-12-08T10:07:29;4.78;;;2.03;;
74749;SDS011;63269;53.330;-6.288;2022-12-08T10:12:59;7.18;;;2.33;;
74749;SDS011;63269;53.330;-6.288;2022-12-08T10:18:20;7.90;;;2.83;;
74749;SDS011;63269;53.330;-6.288;2022-12-08T10:20:49;9.00;;;2.33;;
74749;SDS011;63269;53.330;-6.288;2022-12-08T10:23:23;6.10;;;2.53;;
74749;SDS011;63269;53.330;-6.288;2022-12-08T10:25:57;5.97;;;2.80;;
74749;SDS011;63269;53.330;-6.288;2022-12-08T10:28:35;7.30;;;2.63;;
74749;SDS011;63269;53.330;-6.288;2022-12-08T10:31:01;7.70;;;3.45;;
74749;SDS011;63269;53.330;-6.288;2022-12-08T10:33:27;9.57;;;2.38;;
74749;SDS011;63269;53.330;-6.288;2022-12-08T10:35:54;6.63;;;2.28;;
74749;SDS011;63269;53.330;-6.288;2022-12-08T10:38:36;5.40;;;2.35;;
74749;SDS011;63269;53.330;-6.288;2022-12-08T10:41:05;5.25;;;2.75;;
74749;SDS011;63269;53.330;-6.288;2022-12-08T10:43:35;9.50;;;2.95;;
74749;SDS011;63269;53.330;-6.288;2022-12-08T10:46:07;4.97;;;2.65;;
74749;SDS011;63269;53.330;-6.288;2022-12-08T10:48:45;8.02;;;3.13;;
74749;SDS011;63269;53.330;-6.288;2022-12-08T10:51:23;5.60;;;2.45;;
74749;SDS011;63269;53.330;-6.288;2022-12-08T10:54:00;6.40;;;2.30;;
74749;SDS011;63269;53.330;-6.288;2022-12-08T10:56:28;6.32;;;2.42;;
74749;SDS011;63269;53.330;-6.288;2022-12-08T10:59:14;5.90;;;2.78;;
74749;SDS011;63269;53.330;-6.288;2022-12-08T11:01:44;5.93;;;2.65;;
74749;SDS011;63269;53.330;-6.288;2022-12-08T11:04:21;4.35;;;2.30;;
74749;SDS011;63269;53.330;-6.288;2022-12-08T11:06:53;6.18;;;2.70;;
74749;SDS011;63269;53.330;-6.288;2022-12-08T11:11:46;3.80;;;1.98;;
74749;SDS011;63269;53.330;-6.288;2022-12-08T11:14:25;4.43;;;1.92;;
74749;SDS011;63269;53.330;-6.288;2022-12-08T11:16:55;6.20;;;2.40;;
74749;SDS011;63269;53.330;-6.288;2022-12-08T11:19:28;6.90;;;2.30;;
74749;SDS011;63269;53.330;-6.288;2022-12-08T11:21:54;4.65;;;2.33;;
74749;SDS011;63269;53.330;-6.288;2022-12-08T11:24:20;6.30;;;2.85;;
74749;SDS011;63269;53.330;-6.288;2022-12-08T11:27:01;5.38;;;2.08;;
74749;SDS011;63269;53.330;-6.288;2022-12-08T11:29:30;6.25;;;1.98;;
74749;SDS011;63269;53.330;-6.288;2022-12-08T11:32:01;3.92;;;2.15;;
74749;SDS011;63269;53.330;-6.288;2022-12-08T11:37:05;4.53;;;2.33;;
74749;SDS011;63269;53.330;-6.288;2022-12-08T11:39:39;3.67;;;1.65;;
74749;SDS011;63269;53.330;-6.288;2022-12-08T11:42:10;3.55;;;2.10;;
74749;SDS011;63269;53.330;-6.288;2022-12-08T11:47:21;3.80;;;1.48;;
74749;SDS011;63269;53.330;-6.288;2022-12-08T11:49:51;3.47;;;1.98;;
74749;SDS011;63269;53.330;-6.288;2022-12-08T11:52:27;4.95;;;1.85;;
74749;SDS011;63269;53.330;-6.288;2022-12-08T11:57:40;3.30;;;1.70;;
74749;SDS011;63269;53.330;-6.288;2022-12-08T12:00:08;4.30;;;2.00;;
74749;SDS011;63269;53.330;-6.288;2022-12-08T12:02:37;4.70;;;2.10;;
74749;SDS011;63269;53.330;-6.288;2022-12-08T12:05:30;3.42;;;2.38;;
74749;SDS011;63269;53.330;-6.288;2022-12-08T12:17:01;3.00;;;1.67;;
74749;SDS011;63269;53.330;-6.288;2022-12-08T12:19:29;3.33;;;2.33;;
74749;SDS011;63269;53.330;-6.288;2022-12-08T12:22:05;3.05;;;1.40;;
74749;SDS011;63269;53.330;-6.288;2022-12-08T12:24:37;4.88;;;1.80;;
74749;SDS011;63269;53.330;-6.288;2022-12-08T12:29:38;3.28;;;1.65;;
74749;SDS011;63269;53.330;-6.288;2022-12-08T12:32:10;1.80;;;1.27;;
74749;SDS011;63269;53.330;-6.288;2022-12-08T12:34:37;2.78;;;1.50;;
74749;SDS011;63269;53.330;-6.288;2022-12-08T12:37:13;2.92;;;1.58;;
74749;SDS011;63269;53.330;-6.288;2022-12-08T12:39:59;2.95;;;1.70;;
74749;SDS011;63269;53.330;-6.288;2022-12-08T12:42:38;2.20;;;1.50;;
74749;SDS011;63269;53.330;-6.288;2022-12-08T12:45:26;3.15;;;1.70;;
74749;SDS011;63269;53.330;-6.288;2022-12-08T12:56:03;2.88;;;1.80;;
74749;SDS011;63269;53.330;-6.288;2022-12-08T13:03:34;3.00;;;1.80;;
74749;SDS011;63269;53.330;-6.288;2022-12-08T13:06:00;3.55;;;1.95;;
74749;SDS011;63269;53.330;-6.288;2022-12-08T13:08:26;2.90;;;1.95;;
74749;SDS011;63269;53.330;-6.288;2022-12-08T13:10:59;4.32;;;2.20;;
74749;SDS011;63269;53.330;-6.288;2022-12-08T13:13:27;2.45;;;1.50;;
74749;SDS011;63269;53.330;-6.288;2022-12-08T13:18:36;2.58;;;1.67;;
74749;SDS011;63269;53.330;-6.288;2022-12-08T13:26:10;5.95;;;1.60;;
74749;SDS011;63269;53.330;-6.288;2022-12-08T13:31:39;2.65;;;1.65;;
74749;SDS011;63269;53.330;-6.288;2022-12-08T13:34:06;3.25;;;1.48;;
74749;SDS011;63269;53.330;-6.288;2022-12-08T13:36:48;2.65;;;1.58;;
74749;SDS011;63269;53.330;-6.288;2022-12-08T13:39:29;2.80;;;1.52;;
74749;SDS011;63269;53.330;-6.288;2022-12-08T13:42:23;2.42;;;1.77;;
74749;SDS011;63269;53.330;-6.288;2022-12-08T13:45:02;3.05;;;1.80;;
74749;SDS011;63269;53.330;-6.288;2022-12-08T13:52:35;2.90;;;1.55;;
74749;SDS011;63269;53.330;-6.288;2022-12-08T13:55:18;3.65;;;1.45;;
74749;SDS011;63269;53.330;-6.288;2022-12-08T13:57:49;3.17;;;1.65;;
74749;SDS011;63269;53.330;-6.288;2022-12-08T14:00:16;1.95;;;1.40;;
74749;SDS011;63269;53.330;-6.288;2022-12-08T14:02:50;2.45;;;1.40;;
74749;SDS011;63269;53.330;-6.288;2022-12-08T14:05:20;2.42;;;1.40;;
74749;SDS011;63269;53.330;-6.288;2022-12-08T14:07:48;3.28;;;1.40;;
74749;SDS011;63269;53.330;-6.288;2022-12-08T14:10:18;3.83;;;1.45;;
74749;SDS011;63269;53.330;-6.288;2022-12-08T14:12:50;2.53;;;1.33;;
74749;SDS011;63269;53.330;-6.288;2022-12-08T14:15:19;1.90;;;1.30;;
74749;SDS011;63269;53.330;-6.288;2022-12-08T14:17:55;2.53;;;1.30;;
74749;SDS011;63269;53.330;-6.288;2022-12-08T14:20:25;2.17;;;1.38;;
74749;SDS011;63269;53.330;-6.288;2022-12-08T14:22:52;2.05;;;1.50;;
74749;SDS011;63269;53.330;-6.288;2022-12-08T14:25:19;1.60;;;1.08;;
74749;SDS011;63269;53.330;-6.288;2022-12-08T14:27:45;2.40;;;1.23;;
74749;SDS011;63269;53.330;-6.288;2022-12-08T14:37:54;3.03;;;1.23;;
74749;SDS011;63269;53.330;-6.288;2022-12-08T14:40:35;1.35;;;1.00;;
74749;SDS011;63269;53.330;-6.288;2022-12-08T14:56:41;1.75;;;0.93;;
74749;SDS011;63269;53.330;-6.288;2022-12-08T14:59:31;2.13;;;1.02;;
74749;SDS011;63269;53.330;-6.288;2022-12-08T15:02:20;1.45;;;0.90;;
74749;SDS011;63269;53.330;-6.288;2022-12-08T15:04:55;2.15;;;1.48;;
74749;SDS011;63269;53.330;-6.288;2022-12-08T15:07:21;1.50;;;0.98;;
74749;SDS011;63269;53.330;-6.288;2022-12-08T15:10:04;2.33;;;1.27;;
74749;SDS011;63269;53.330;-6.288;2022-12-08T15:13:00;3.10;;;1.10;;
74749;SDS011;63269;53.330;-6.288;2022-12-08T15:15:31;2.78;;;1.23;;
74749;SDS011;63269;53.330;-6.288;2022-12-08T15:18:35;1.70;;;0.98;;
74749;SDS011;63269;53.330;-6.288;2022-12-08T15:21:03;1.42;;;0.77;;
74749;SDS011;63269;53.330;-6.288;2022-12-08T15:26:03;1.48;;;0.90;;
74749;SDS011;63269;53.330;-6.288;2022-12-08T15:28:30;1.90;;;1.00;;
74749;SDS011;63269;53.330;-6.288;2022-12-08T15:30:56;3.63;;;1.10;;
74749;SDS011;63269;53.330;-6.288;2022-12-08T15:33:22;2.05;;;0.98;;
74749;SDS011;63269;53.330;-6.288;2022-12-08T15:35:48;2.67;;;1.10;;
74749;SDS011;63269;53.330;-6.288;2022-12-08T15:38:16;3.33;;;1.00;;
74749;SDS011;63269;53.330;-6.288;2022-12-08T15:40:46;3.00;;;1.10;;
74749;SDS011;63269;53.330;-6.288;2022-12-08T15:43:12;3.72;;;1.10;;
74749;SDS011;63269;53.330;-6.288;2022-12-08T15:45:37;2.55;;;1.08;;
74749;SDS011;63269;53.330;-6.288;2022-12-08T15:48:03;3.58;;;1.63;;
74749;SDS011;63269;53.330;-6.288;2022-12-08T15:50:29;3.28;;;1.15;;
74749;SDS011;63269;53.330;-6.288;2022-12-08T15:52:54;3.13;;;1.20;;
74749;SDS011;63269;53.330;-6.288;2022-12-08T15:55:20;3.33;;;1.30;;
74749;SDS011;63269;53.330;-6.288;2022-12-08T15:57:47;3.03;;;1.38;;
74749;SDS011;63269;53.330;-6.288;2022-12-08T16:00:23;2.87;;;1.70;;
74749;SDS011;63269;53.330;-6.288;2022-12-08T16:02:51;3.97;;;1.58;;
74749;SDS011;63269;53.330;-6.288;2022-12-08T16:05:17;4.28;;;1.70;;
74749;SDS011;63269;53.330;-6.288;2022-12-08T16:07:44;2.38;;;1.55;;
74749;SDS011;63269;53.330;-6.288;2022-12-08T16:10:20;3.63;;;2.13;;
74749;SDS011;63269;53.330;-6.288;2022-12-08T16:12:47;4.15;;;2.67;;
74749;SDS011;63269;53.330;-6.288;2022-12-08T16:15:33;5.95;;;2.70;;
74749;SDS011;63269;53.330;-6.288;2022-12-08T16:18:00;6.57;;;3.55;;
74749;SDS011;63269;53.330;-6.288;2022-12-08T16:20:26;7.22;;;3.65;;
74749;SDS011;63269;53.330;-6.288;2022-12-08T16:22:51;5.70;;;4.10;;
74749;SDS011;63269;53.330;-6.288;2022-12-08T16:25:17;6.05;;;4.25;;
74749;SDS011;63269;53.330;-6.288;2022-12-08T16:27:43;7.10;;;4.00;;